sensor_id;sensor_type;location;lat;lon;timestamp;temperature;humidity
10433;DHT22;5263;48.680;9.004;2023-08-17T00:01:20;18.50;99.90
10433;DHT22;5263;48.680;9.004;2023-08-17T00:03:46;18.70;99.90
10433;DHT22;5263;48.680;9.004;2023-08-17T00:06:11;18.60;99.90
10433;DHT22;5263;48.680;9.004;2023-08-17T00:08:37;18.30;99.90
10433;DHT22;5263;48.680;9.004;2023-08-17T00:11:03;18.30;99.90
10433;DHT22;5263;48.680;9.004;2023-08-17T00:13:28;18.10;99.90
10433;DHT22;5263;48.680;9.004;2023-08-17T00:15:54;18.10;99.90
10433;DHT22;5263;48.680;9.004;2023-08-17T00:18:19;18.20;99.90
10433;DHT22;5263;48.680;9.004;2023-08-17T00:20:45;18.30;99.90
10433;DHT22;5263;48.680;9.004;2023-08-17T00:23:11;18.20;99.90
10433;DHT22;5263;48.680;9.004;2023-08-17T00:25:36;18.30;99.90
10433;DHT22;5263;48.680;9.004;2023-08-17T00:28:02;18.20;99.90
10433;DHT22;5263;48.680;9.004;2023-08-17T00:30:27;18.30;99.90
10433;DHT22;5263;48.680;9.004;2023-08-17T00:32:53;18.30;99.90
10433;DHT22;5263;48.680;9.004;2023-08-17T00:35:18;18.30;99.90
10433;DHT22;5263;48.680;9.004;2023-08-17T00:37:44;18.10;99.90
10433;DHT22;5263;48.680;9.004;2023-08-17T00:40:10;18.20;99.90
10433;DHT22;5263;48.680;9.004;2023-08-17T00:42:35;18.30;99.90
10433;DHT22;5263;48.680;9.004;2023-08-17T00:45:01;18.30;99.90
10433;DHT22;5263;48.680;9.004;2023-08-17T00:47:28;18.40;99.90
10433;DHT22;5263;48.680;9.004;2023-08-17T00:49:54;18.20;99.90
10433;DHT22;5263;48.680;9.004;2023-08-17T00:52:20;18.20;99.90
10433;DHT22;5263;48.680;9.004;2023-08-17T00:54:46;18.10;99.90
10433;DHT22;5263;48.680;9.004;2023-08-17T00:57:11;17.80;99.90
10433;DHT22;5263;48.680;9.004;2023-08-17T00:59:37;17.70;99.90
10433;DHT22;5263;48.680;9.004;2023-08-17T01:02:03;17.60;99.90
10433;DHT22;5263;48.680;9.004;2023-08-17T01:04:30;17.60;99.90
10433;DHT22;5263;48.680;9.004;2023-08-17T01:06:56;17.70;99.90
10433;DHT22;5263;48.680;9.004;2023-08-17T01:09:22;17.80;99.90
10433;DHT22;5263;48.680;9.004;2023-08-17T01:12:06;17.90;99.90
10433;DHT22;5263;48.680;9.004;2023-08-17T01:14:41;17.80;99.90
10433;DHT22;5263;48.680;9.004;2023-08-17T01:17:33;17.70;99.90
10433;DHT22;5263;48.680;9.004;2023-08-17T01:20:00;17.80;99.90
10433;DHT22;5263;48.680;9.004;2023-08-17T01:22:30;17.80;99.90
10433;DHT22;5263;48.680;9.004;2023-08-17T01:24:58;17.90;99.90
10433;DHT22;5263;48.680;9.004;2023-08-17T01:27:24;17.90;99.90
10433;DHT22;5263;48.680;9.004;2023-08-17T01:29:51;17.70;99.90
10433;DHT22;5263;48.680;9.004;2023-08-17T01:32:30;17.50;99.90
10433;DHT22;5263;48.680;9.004;2023-08-17T01:35:19;17.50;99.90
10433;DHT22;5263;48.680;9.004;2023-08-17T01:37:47;17.70;99.90
10433;DHT22;5263;48.680;9.004;2023-08-17T01:40:15;17.80;99.90
10433;DHT22;5263;48.680;9.004;2023-08-17T01:42:41;17.50;99.90
10433;DHT22;5263;48.680;9.004;2023-08-17T01:45:08;17.50;99.90
10433;DHT22;5263;48.680;9.004;2023-08-17T01:47:35;17.70;99.90
10433;DHT22;5263;48.680;9.004;2023-08-17T01:50:00;17.80;99.90
10433;DHT22;5263;48.680;9.004;2023-08-17T01:52:29;17.70;99.90
10433;DHT22;5263;48.680;9.004;2023-08-17T01:54:55;17.70;99.90
10433;DHT22;5263;48.680;9.004;2023-08-17T01:57:20;17.80;99.90
10433;DHT22;5263;48.680;9.004;2023-08-17T01:59:46;17.70;99.90
10433;DHT22;5263;48.680;9.004;2023-08-17T02:02:11;17.90;99.90
10433;DHT22;5263;48.680;9.004;2023-08-17T02:04:40;17.80;99.90
10433;DHT22;5263;48.680;9.004;2023-08-17T02:07:05;17.80;99.90
10433;DHT22;5263;48.680;9.004;2023-08-17T02:09:31;18.00;99.90
10433;DHT22;5263;48.680;9.004;2023-08-17T02:11:56;18.00;99.90
10433;DHT22;5263;48.680;9.004;2023-08-17T02:14:22;17.90;99.90
10433;DHT22;5263;48.680;9.004;2023-08-17T02:16:47;17.80;99.90
10433;DHT22;5263;48.680;9.004;2023-08-17T02:19:13;17.90;99.90
10433;DHT22;5263;48.680;9.004;2023-08-17T02:21:39;17.90;99.90
10433;DHT22;5263;48.680;9.004;2023-08-17T02:24:04;17.90;99.90
10433;DHT22;5263;48.680;9.004;2023-08-17T02:26:31;18.00;99.90
10433;DHT22;5263;48.680;9.004;2023-08-17T02:28:56;18.10;99.90
10433;DHT22;5263;48.680;9.004;2023-08-17T02:31:22;18.00;99.90
10433;DHT22;5263;48.680;9.004;2023-08-17T02:33:47;18.00;99.90
10433;DHT22;5263;48.680;9.004;2023-08-17T02:36:13;18.10;99.90
10433;DHT22;5263;48.680;9.004;2023-08-17T02:38:38;18.10;99.90
10433;DHT22;5263;48.680;9.004;2023-08-17T02:41:04;18.30;99.90
10433;DHT22;5263;48.680;9.004;2023-08-17T02:43:30;18.30;99.90
10433;DHT22;5263;48.680;9.004;2023-08-17T02:45:56;18.40;99.90
10433;DHT22;5263;48.680;9.004;2023-08-17T02:48:22;18.30;99.90
10433;DHT22;5263;48.680;9.004;2023-08-17T02:50:48;18.30;99.90
10433;DHT22;5263;48.680;9.004;2023-08-17T02:53:13;18.30;99.90
10433;DHT22;5263;48.680;9.004;2023-08-17T02:55:39;18.30;99.90
10433;DHT22;5263;48.680;9.004;2023-08-17T02:58:04;18.20;99.90
10433;DHT22;5263;48.680;9.004;2023-08-17T03:00:30;18.10;99.90
10433;DHT22;5263;48.680;9.004;2023-08-17T03:02:55;18.10;99.90
10433;DHT22;5263;48.680;9.004;2023-08-17T03:05:21;18.30;99.90
10433;DHT22;5263;48.680;9.004;2023-08-17T03:07:46;18.40;99.90
10433;DHT22;5263;48.680;9.004;2023-08-17T03:10:12;18.40;99.90
10433;DHT22;5263;48.680;9.004;2023-08-17T03:12:38;18.60;99.90
10433;DHT22;5263;48.680;9.004;2023-08-17T03:15:06;18.60;99.90
10433;DHT22;5263;48.680;9.004;2023-08-17T03:17:31;18.70;99.90
10433;DHT22;5263;48.680;9.004;2023-08-17T03:19:57;18.70;99.90
10433;DHT22;5263;48.680;9.004;2023-08-17T03:22:24;18.60;99.90
10433;DHT22;5263;48.680;9.004;2023-08-17T03:24:50;18.70;99.90
10433;DHT22;5263;48.680;9.004;2023-08-17T03:27:15;18.90;99.90
10433;DHT22;5263;48.680;9.004;2023-08-17T03:29:41;18.70;99.90
10433;DHT22;5263;48.680;9.004;2023-08-17T03:32:07;18.80;99.90
10433;DHT22;5263;48.680;9.004;2023-08-17T03:34:32;18.60;99.90
10433;DHT22;5263;48.680;9.004;2023-08-17T03:36:58;18.40;99.90
10433;DHT22;5263;48.680;9.004;2023-08-17T03:39:23;18.60;99.90
10433;DHT22;5263;48.680;9.004;2023-08-17T03:41:49;18.60;99.90
10433;DHT22;5263;48.680;9.004;2023-08-17T03:44:14;18.40;99.90
10433;DHT22;5263;48.680;9.004;2023-08-17T03:46:40;18.40;99.90
10433;DHT22;5263;48.680;9.004;2023-08-17T03:49:06;18.40;99.90
10433;DHT22;5263;48.680;9.004;2023-08-17T03:51:32;18.30;99.90
10433;DHT22;5263;48.680;9.004;2023-08-17T03:53:58;18.20;99.90
10433;DHT22;5263;48.680;9.004;2023-08-17T03:56:23;18.00;99.90
10433;DHT22;5263;48.680;9.004;2023-08-17T03:58:50;18.10;99.90
10433;DHT22;5263;48.680;9.004;2023-08-17T04:01:16;17.90;99.90
10433;DHT22;5263;48.680;9.004;2023-08-17T04:03:41;18.00;99.90
10433;DHT22;5263;48.680;9.004;2023-08-17T04:06:07;18.10;99.90
10433;DHT22;5263;48.680;9.004;2023-08-17T04:08:36;18.20;99.90
10433;DHT22;5263;48.680;9.004;2023-08-17T04:11:02;18.00;99.90
10433;DHT22;5263;48.680;9.004;2023-08-17T04:13:27;18.00;99.90
10433;DHT22;5263;48.680;9.004;2023-08-17T04:15:53;18.00;99.90
10433;DHT22;5263;48.680;9.004;2023-08-17T04:18:18;17.90;99.90
10433;DHT22;5263;48.680;9.004;2023-08-17T04:20:44;17.90;99.90
10433;DHT22;5263;48.680;9.004;2023-08-17T04:23:10;18.00;99.90
10433;DHT22;5263;48.680;9.004;2023-08-17T04:25:35;17.90;99.90
10433;DHT22;5263;48.680;9.004;2023-08-17T04:28:01;18.00;99.90
10433;DHT22;5263;48.680;9.004;2023-08-17T04:30:26;17.90;99.90
10433;DHT22;5263;48.680;9.004;2023-08-17T04:32:52;17.90;99.90
10433;DHT22;5263;48.680;9.004;2023-08-17T04:35:21;17.90;99.90
10433;DHT22;5263;48.680;9.004;2023-08-17T04:37:47;18.10;99.90
10433;DHT22;5263;48.680;9.004;2023-08-17T04:40:13;18.10;99.90
10433;DHT22;5263;48.680;9.004;2023-08-17T04:42:39;18.10;99.90
10433;DHT22;5263;48.680;9.004;2023-08-17T04:45:05;18.20;99.90
10433;DHT22;5263;48.680;9.004;2023-08-17T04:47:31;18.30;99.90
10433;DHT22;5263;48.680;9.004;2023-08-17T04:49:56;18.20;99.90
10433;DHT22;5263;48.680;9.004;2023-08-17T04:52:22;18.10;99.90
10433;DHT22;5263;48.680;9.004;2023-08-17T04:54:47;18.00;99.90
10433;DHT22;5263;48.680;9.004;2023-08-17T04:57:13;18.10;99.90
10433;DHT22;5263;48.680;9.004;2023-08-17T04:59:40;18.00;99.90
10433;DHT22;5263;48.680;9.004;2023-08-17T05:02:05;17.90;99.90
10433;DHT22;5263;48.680;9.004;2023-08-17T05:04:31;18.00;99.90
10433;DHT22;5263;48.680;9.004;2023-08-17T05:06:57;18.10;99.90
10433;DHT22;5263;48.680;9.004;2023-08-17T05:09:22;18.20;99.90
10433;DHT22;5263;48.680;9.004;2023-08-17T05:11:48;18.40;99.90
10433;DHT22;5263;48.680;9.004;2023-08-17T05:14:14;18.50;99.90
10433;DHT22;5263;48.680;9.004;2023-08-17T05:16:39;18.30;99.90
10433;DHT22;5263;48.680;9.004;2023-08-17T05:19:05;18.40;99.90
10433;DHT22;5263;48.680;9.004;2023-08-17T05:21:30;18.50;99.90
10433;DHT22;5263;48.680;9.004;2023-08-17T05:23:56;18.50;99.90
10433;DHT22;5263;48.680;9.004;2023-08-17T05:26:22;18.40;99.90
10433;DHT22;5263;48.680;9.004;2023-08-17T05:28:48;18.40;99.90
10433;DHT22;5263;48.680;9.004;2023-08-17T05:31:13;18.40;99.90
10433;DHT22;5263;48.680;9.004;2023-08-17T05:33:39;18.20;99.90
10433;DHT22;5263;48.680;9.004;2023-08-17T05:36:06;18.30;99.90
10433;DHT22;5263;48.680;9.004;2023-08-17T05:38:32;18.60;99.90
10433;DHT22;5263;48.680;9.004;2023-08-17T05:40:58;18.70;99.90
10433;DHT22;5263;48.680;9.004;2023-08-17T05:43:24;18.80;99.90
10433;DHT22;5263;48.680;9.004;2023-08-17T05:45:50;19.00;99.90
10433;DHT22;5263;48.680;9.004;2023-08-17T05:48:18;18.90;99.90
10433;DHT22;5263;48.680;9.004;2023-08-17T05:50:44;18.90;99.90
10433;DHT22;5263;48.680;9.004;2023-08-17T05:53:10;18.60;99.90
10433;DHT22;5263;48.680;9.004;2023-08-17T05:55:35;18.90;99.90
10433;DHT22;5263;48.680;9.004;2023-08-17T05:58:02;18.80;99.90
10433;DHT22;5263;48.680;9.004;2023-08-17T06:00:29;18.90;99.90
10433;DHT22;5263;48.680;9.004;2023-08-17T06:02:55;18.80;99.90
10433;DHT22;5263;48.680;9.004;2023-08-17T06:05:26;18.80;99.90
10433;DHT22;5263;48.680;9.004;2023-08-17T06:07:52;18.70;99.90
10433;DHT22;5263;48.680;9.004;2023-08-17T06:10:18;18.60;99.90
10433;DHT22;5263;48.680;9.004;2023-08-17T06:12:44;18.60;99.90
10433;DHT22;5263;48.680;9.004;2023-08-17T06:15:09;18.40;99.90
10433;DHT22;5263;48.680;9.004;2023-08-17T06:17:35;18.40;99.90
10433;DHT22;5263;48.680;9.004;2023-08-17T06:20:01;18.30;99.90
10433;DHT22;5263;48.680;9.004;2023-08-17T06:22:28;18.50;99.90
10433;DHT22;5263;48.680;9.004;2023-08-17T06:24:53;18.80;99.90
10433;DHT22;5263;48.680;9.004;2023-08-17T06:27:19;18.70;99.90
10433;DHT22;5263;48.680;9.004;2023-08-17T06:29:44;18.90;99.90
10433;DHT22;5263;48.680;9.004;2023-08-17T06:32:10;18.90;99.90
10433;DHT22;5263;48.680;9.004;2023-08-17T06:34:36;19.10;99.90
10433;DHT22;5263;48.680;9.004;2023-08-17T06:37:03;19.20;99.90
10433;DHT22;5263;48.680;9.004;2023-08-17T06:39:28;19.00;99.90
10433;DHT22;5263;48.680;9.004;2023-08-17T06:41:54;18.80;99.90
10433;DHT22;5263;48.680;9.004;2023-08-17T06:44:20;18.50;99.90
10433;DHT22;5263;48.680;9.004;2023-08-17T06:46:46;18.60;99.90
10433;DHT22;5263;48.680;9.004;2023-08-17T06:49:12;18.60;99.90
10433;DHT22;5263;48.680;9.004;2023-08-17T06:51:38;18.60;99.90
10433;DHT22;5263;48.680;9.004;2023-08-17T06:54:04;18.90;99.90
10433;DHT22;5263;48.680;9.004;2023-08-17T06:56:30;18.90;99.90
10433;DHT22;5263;48.680;9.004;2023-08-17T06:58:56;19.00;99.90
10433;DHT22;5263;48.680;9.004;2023-08-17T07:01:21;18.90;99.90
10433;DHT22;5263;48.680;9.004;2023-08-17T07:03:47;19.20;99.90
10433;DHT22;5263;48.680;9.004;2023-08-17T07:06:13;19.30;99.90
10433;DHT22;5263;48.680;9.004;2023-08-17T07:08:39;19.40;99.90
10433;DHT22;5263;48.680;9.004;2023-08-17T07:11:04;19.20;99.90
10433;DHT22;5263;48.680;9.004;2023-08-17T07:13:31;19.10;99.90
10433;DHT22;5263;48.680;9.004;2023-08-17T07:15:57;19.50;99.90
10433;DHT22;5263;48.680;9.004;2023-08-17T07:18:22;19.70;99.90
10433;DHT22;5263;48.680;9.004;2023-08-17T07:20:48;20.00;99.90
10433;DHT22;5263;48.680;9.004;2023-08-17T07:23:15;19.60;99.90
10433;DHT22;5263;48.680;9.004;2023-08-17T07:25:40;19.90;99.90
10433;DHT22;5263;48.680;9.004;2023-08-17T07:28:06;20.30;99.90
10433;DHT22;5263;48.680;9.004;2023-08-17T07:30:31;20.50;99.90
10433;DHT22;5263;48.680;9.004;2023-08-17T07:32:57;20.70;99.90
10433;DHT22;5263;48.680;9.004;2023-08-17T07:35:22;20.60;99.90
10433;DHT22;5263;48.680;9.004;2023-08-17T07:37:48;20.40;99.90
10433;DHT22;5263;48.680;9.004;2023-08-17T07:40:14;20.50;99.90
10433;DHT22;5263;48.680;9.004;2023-08-17T07:42:39;20.40;99.90
10433;DHT22;5263;48.680;9.004;2023-08-17T07:45:05;21.00;99.90
10433;DHT22;5263;48.680;9.004;2023-08-17T07:47:34;20.70;99.90
10433;DHT22;5263;48.680;9.004;2023-08-17T07:50:01;20.60;99.90
10433;DHT22;5263;48.680;9.004;2023-08-17T07:52:27;20.80;99.90
10433;DHT22;5263;48.680;9.004;2023-08-17T07:54:53;20.30;99.90
10433;DHT22;5263;48.680;9.004;2023-08-17T07:57:18;20.30;99.90
10433;DHT22;5263;48.680;9.004;2023-08-17T07:59:50;20.50;99.90
10433;DHT22;5263;48.680;9.004;2023-08-17T08:02:17;20.90;99.90
10433;DHT22;5263;48.680;9.004;2023-08-17T08:04:42;20.50;99.90
10433;DHT22;5263;48.680;9.004;2023-08-17T08:07:09;20.90;99.90
10433;DHT22;5263;48.680;9.004;2023-08-17T08:09:35;21.20;99.90
10433;DHT22;5263;48.680;9.004;2023-08-17T08:12:01;21.30;99.90
10433;DHT22;5263;48.680;9.004;2023-08-17T08:14:27;21.90;99.90
10433;DHT22;5263;48.680;9.004;2023-08-17T08:16:52;22.30;99.90
10433;DHT22;5263;48.680;9.004;2023-08-17T08:19:18;22.10;99.90
10433;DHT22;5263;48.680;9.004;2023-08-17T08:21:43;22.10;99.90
10433;DHT22;5263;48.680;9.004;2023-08-17T08:24:09;22.20;99.90
10433;DHT22;5263;48.680;9.004;2023-08-17T08:26:34;22.20;99.90
10433;DHT22;5263;48.680;9.004;2023-08-17T08:29:00;22.30;99.90
10433;DHT22;5263;48.680;9.004;2023-08-17T08:31:26;22.30;99.90
10433;DHT22;5263;48.680;9.004;2023-08-17T08:33:51;22.30;99.90
10433;DHT22;5263;48.680;9.004;2023-08-17T08:36:18;22.30;99.90
10433;DHT22;5263;48.680;9.004;2023-08-17T08:38:44;22.00;99.90
10433;DHT22;5263;48.680;9.004;2023-08-17T08:41:11;22.20;99.90
10433;DHT22;5263;48.680;9.004;2023-08-17T08:43:36;22.10;99.90
10433;DHT22;5263;48.680;9.004;2023-08-17T08:46:04;22.30;99.90
10433;DHT22;5263;48.680;9.004;2023-08-17T08:48:31;21.90;99.90
10433;DHT22;5263;48.680;9.004;2023-08-17T08:51:00;22.00;99.90
10433;DHT22;5263;48.680;9.004;2023-08-17T08:53:39;22.20;99.90
10433;DHT22;5263;48.680;9.004;2023-08-17T08:56:11;22.00;99.90
10433;DHT22;5263;48.680;9.004;2023-08-17T08:58:38;22.10;99.90
10433;DHT22;5263;48.680;9.004;2023-08-17T09:01:06;22.30;99.90
10433;DHT22;5263;48.680;9.004;2023-08-17T09:03:33;22.00;99.90
10433;DHT22;5263;48.680;9.004;2023-08-17T09:05:59;22.30;99.90
10433;DHT22;5263;48.680;9.004;2023-08-17T09:08:29;22.60;99.90
10433;DHT22;5263;48.680;9.004;2023-08-17T09:10:56;22.80;99.90
10433;DHT22;5263;48.680;9.004;2023-08-17T09:13:21;23.10;99.90
10433;DHT22;5263;48.680;9.004;2023-08-17T09:15:47;23.30;99.90
10433;DHT22;5263;48.680;9.004;2023-08-17T09:18:12;23.10;99.90
10433;DHT22;5263;48.680;9.004;2023-08-17T09:20:39;23.20;99.90
10433;DHT22;5263;48.680;9.004;2023-08-17T09:23:09;23.60;99.90
10433;DHT22;5263;48.680;9.004;2023-08-17T09:25:39;23.90;99.90
10433;DHT22;5263;48.680;9.004;2023-08-17T09:28:10;24.00;99.90
10433;DHT22;5263;48.680;9.004;2023-08-17T09:30:59;24.00;99.90
10433;DHT22;5263;48.680;9.004;2023-08-17T09:33:30;24.30;99.90
10433;DHT22;5263;48.680;9.004;2023-08-17T09:35:57;24.20;99.90
10433;DHT22;5263;48.680;9.004;2023-08-17T09:38:24;24.40;99.90
10433;DHT22;5263;48.680;9.004;2023-08-17T09:40:49;24.80;99.90
10433;DHT22;5263;48.680;9.004;2023-08-17T09:43:16;25.10;99.90
10433;DHT22;5263;48.680;9.004;2023-08-17T09:45:44;25.50;99.90
10433;DHT22;5263;48.680;9.004;2023-08-17T09:48:18;25.80;99.90
10433;DHT22;5263;48.680;9.004;2023-08-17T09:50:45;26.00;99.90
10433;DHT22;5263;48.680;9.004;2023-08-17T09:53:15;25.80;99.90
10433;DHT22;5263;48.680;9.004;2023-08-17T09:55:42;26.00;99.90
10433;DHT22;5263;48.680;9.004;2023-08-17T09:58:08;26.30;99.90
10433;DHT22;5263;48.680;9.004;2023-08-17T10:00:34;26.90;99.90
10433;DHT22;5263;48.680;9.004;2023-08-17T10:03:02;27.30;99.90
10433;DHT22;5263;48.680;9.004;2023-08-17T10:05:32;27.40;99.90
10433;DHT22;5263;48.680;9.004;2023-08-17T10:07:59;27.80;99.90
10433;DHT22;5263;48.680;9.004;2023-08-17T10:10:26;27.80;99.90
10433;DHT22;5263;48.680;9.004;2023-08-17T10:15:22;27.70;99.90
10433;DHT22;5263;48.680;9.004;2023-08-17T10:17:58;27.90;99.90
10433;DHT22;5263;48.680;9.004;2023-08-17T10:20:26;28.40;99.90
10433;DHT22;5263;48.680;9.004;2023-08-17T10:23:10;29.70;99.90
10433;DHT22;5263;48.680;9.004;2023-08-17T10:25:38;31.90;99.90
10433;DHT22;5263;48.680;9.004;2023-08-17T10:28:04;31.50;99.90
10433;DHT22;5263;48.680;9.004;2023-08-17T10:30:31;32.10;99.90
10433;DHT22;5263;48.680;9.004;2023-08-17T10:32:57;32.20;99.90
10433;DHT22;5263;48.680;9.004;2023-08-17T10:35:23;34.40;99.90
10433;DHT22;5263;48.680;9.004;2023-08-17T10:37:49;34.80;99.90
10433;DHT22;5263;48.680;9.004;2023-08-17T10:40:15;37.10;99.40
10433;DHT22;5263;48.680;9.004;2023-08-17T10:42:40;36.90;99.10
10433;DHT22;5263;48.680;9.004;2023-08-17T10:45:26;35.70;99.90
10433;DHT22;5263;48.680;9.004;2023-08-17T10:50:38;36.80;95.20
10433;DHT22;5263;48.680;9.004;2023-08-17T10:53:11;36.60;96.80
10433;DHT22;5263;48.680;9.004;2023-08-17T10:55:38;35.20;97.30
10433;DHT22;5263;48.680;9.004;2023-08-17T10:58:05;37.60;94.30
10433;DHT22;5263;48.680;9.004;2023-08-17T11:00:40;35.60;96.80
10433;DHT22;5263;48.680;9.004;2023-08-17T11:03:10;35.20;98.00
10433;DHT22;5263;48.680;9.004;2023-08-17T11:05:41;34.20;97.80
10433;DHT22;5263;48.680;9.004;2023-08-17T11:11:15;37.40;91.40
10433;DHT22;5263;48.680;9.004;2023-08-17T11:13:43;37.10;92.00
10433;DHT22;5263;48.680;9.004;2023-08-17T11:16:12;37.50;91.50
10433;DHT22;5263;48.680;9.004;2023-08-17T11:18:38;38.10;89.90
10433;DHT22;5263;48.680;9.004;2023-08-17T11:21:05;36.70;91.10
10433;DHT22;5263;48.680;9.004;2023-08-17T11:23:32;35.90;91.20
10433;DHT22;5263;48.680;9.004;2023-08-17T11:25:58;35.30;93.00
10433;DHT22;5263;48.680;9.004;2023-08-17T11:28:24;34.40;95.40
10433;DHT22;5263;48.680;9.004;2023-08-17T11:31:10;33.70;96.00
10433;DHT22;5263;48.680;9.004;2023-08-17T11:33:37;34.40;96.20
10433;DHT22;5263;48.680;9.004;2023-08-17T11:36:04;34.30;96.70
10433;DHT22;5263;48.680;9.004;2023-08-17T11:38:32;34.40;96.30
10433;DHT22;5263;48.680;9.004;2023-08-17T11:40:58;34.40;96.00
10433;DHT22;5263;48.680;9.004;2023-08-17T11:43:25;34.60;95.40
10433;DHT22;5263;48.680;9.004;2023-08-17T11:45:51;34.50;96.90
10433;DHT22;5263;48.680;9.004;2023-08-17T11:48:19;34.70;96.50
10433;DHT22;5263;48.680;9.004;2023-08-17T11:50:45;33.70;96.50
10433;DHT22;5263;48.680;9.004;2023-08-17T11:53:11;33.00;96.80
10433;DHT22;5263;48.680;9.004;2023-08-17T11:55:36;31.90;98.80
10433;DHT22;5263;48.680;9.004;2023-08-17T11:58:03;31.30;99.90
10433;DHT22;5263;48.680;9.004;2023-08-17T12:00:35;30.80;99.90
10433;DHT22;5263;48.680;9.004;2023-08-17T12:03:03;30.20;99.90
10433;DHT22;5263;48.680;9.004;2023-08-17T12:05:31;29.70;99.90
10433;DHT22;5263;48.680;9.004;2023-08-17T12:07:57;29.30;99.90
10433;DHT22;5263;48.680;9.004;2023-08-17T12:10:22;29.10;99.90
10433;DHT22;5263;48.680;9.004;2023-08-17T12:12:48;28.80;99.90
10433;DHT22;5263;48.680;9.004;2023-08-17T12:15:16;28.70;99.90
10433;DHT22;5263;48.680;9.004;2023-08-17T12:17:49;28.40;99.90
10433;DHT22;5263;48.680;9.004;2023-08-17T12:20:19;28.10;99.90
10433;DHT22;5263;48.680;9.004;2023-08-17T12:22:48;27.90;99.90
10433;DHT22;5263;48.680;9.004;2023-08-17T12:25:14;27.60;99.90
10433;DHT22;5263;48.680;9.004;2023-08-17T12:27:40;27.80;99.90
10433;DHT22;5263;48.680;9.004;2023-08-17T12:30:30;27.90;99.90
10433;DHT22;5263;48.680;9.004;2023-08-17T12:32:58;27.90;99.90
10433;DHT22;5263;48.680;9.004;2023-08-17T12:35:24;27.80;99.90
10433;DHT22;5263;48.680;9.004;2023-08-17T12:37:51;27.40;99.90
10433;DHT22;5263;48.680;9.004;2023-08-17T12:40:17;27.30;99.90
10433;DHT22;5263;48.680;9.004;2023-08-17T12:42:42;27.20;99.90
10433;DHT22;5263;48.680;9.004;2023-08-17T12:45:08;27.10;99.90
10433;DHT22;5263;48.680;9.004;2023-08-17T12:47:34;26.90;99.90
10433;DHT22;5263;48.680;9.004;2023-08-17T12:49:59;26.60;99.90
10433;DHT22;5263;48.680;9.004;2023-08-17T12:52:26;26.20;99.90
10433;DHT22;5263;48.680;9.004;2023-08-17T12:54:53;25.90;99.90
10433;DHT22;5263;48.680;9.004;2023-08-17T12:57:18;25.60;99.90
10433;DHT22;5263;48.680;9.004;2023-08-17T12:59:44;25.00;99.90
10433;DHT22;5263;48.680;9.004;2023-08-17T13:02:09;24.40;99.90
10433;DHT22;5263;48.680;9.004;2023-08-17T13:04:35;24.20;99.90
10433;DHT22;5263;48.680;9.004;2023-08-17T13:07:01;24.10;99.90
10433;DHT22;5263;48.680;9.004;2023-08-17T13:09:27;24.00;99.90
10433;DHT22;5263;48.680;9.004;2023-08-17T13:11:52;23.70;99.90
10433;DHT22;5263;48.680;9.004;2023-08-17T13:14:18;23.90;99.90
10433;DHT22;5263;48.680;9.004;2023-08-17T13:16:43;24.10;99.90
10433;DHT22;5263;48.680;9.004;2023-08-17T13:19:09;23.90;99.90
10433;DHT22;5263;48.680;9.004;2023-08-17T13:21:35;23.80;99.90
10433;DHT22;5263;48.680;9.004;2023-08-17T13:24:00;23.70;99.90
10433;DHT22;5263;48.680;9.004;2023-08-17T13:26:28;23.50;99.90
10433;DHT22;5263;48.680;9.004;2023-08-17T13:28:54;23.50;99.90
10433;DHT22;5263;48.680;9.004;2023-08-17T13:31:19;23.50;99.90
10433;DHT22;5263;48.680;9.004;2023-08-17T13:33:45;23.30;99.90
10433;DHT22;5263;48.680;9.004;2023-08-17T13:36:10;23.70;99.90
10433;DHT22;5263;48.680;9.004;2023-08-17T13:38:36;23.70;99.90
10433;DHT22;5263;48.680;9.004;2023-08-17T13:41:04;23.40;99.90
10433;DHT22;5263;48.680;9.004;2023-08-17T13:43:29;23.20;99.90
10433;DHT22;5263;48.680;9.004;2023-08-17T13:45:55;23.10;99.90
10433;DHT22;5263;48.680;9.004;2023-08-17T13:48:20;23.40;99.90
10433;DHT22;5263;48.680;9.004;2023-08-17T13:50:46;23.70;99.90
10433;DHT22;5263;48.680;9.004;2023-08-17T13:53:11;23.70;99.90
10433;DHT22;5263;48.680;9.004;2023-08-17T13:55:37;23.60;99.90
10433;DHT22;5263;48.680;9.004;2023-08-17T13:58:03;23.40;99.90
10433;DHT22;5263;48.680;9.004;2023-08-17T14:00:28;23.70;99.90
10433;DHT22;5263;48.680;9.004;2023-08-17T14:02:54;23.70;99.90
10433;DHT22;5263;48.680;9.004;2023-08-17T14:05:19;23.40;99.90
10433;DHT22;5263;48.680;9.004;2023-08-17T14:07:45;23.40;99.90
10433;DHT22;5263;48.680;9.004;2023-08-17T14:10:11;23.40;99.90
10433;DHT22;5263;48.680;9.004;2023-08-17T14:12:36;23.40;99.90
10433;DHT22;5263;48.680;9.004;2023-08-17T14:15:02;23.40;99.90
10433;DHT22;5263;48.680;9.004;2023-08-17T14:17:28;23.60;99.90
10433;DHT22;5263;48.680;9.004;2023-08-17T14:19:53;23.60;99.90
10433;DHT22;5263;48.680;9.004;2023-08-17T14:22:20;23.70;99.90
10433;DHT22;5263;48.680;9.004;2023-08-17T14:24:45;23.70;99.90
10433;DHT22;5263;48.680;9.004;2023-08-17T14:27:11;23.70;99.90
10433;DHT22;5263;48.680;9.004;2023-08-17T14:29:37;23.90;99.90
10433;DHT22;5263;48.680;9.004;2023-08-17T14:32:03;24.40;99.90
10433;DHT22;5263;48.680;9.004;2023-08-17T14:34:28;24.40;99.90
10433;DHT22;5263;48.680;9.004;2023-08-17T14:36:54;25.20;99.90
10433;DHT22;5263;48.680;9.004;2023-08-17T14:39:19;25.60;99.90
10433;DHT22;5263;48.680;9.004;2023-08-17T14:41:45;25.60;99.90
10433;DHT22;5263;48.680;9.004;2023-08-17T14:44:10;25.80;99.90
10433;DHT22;5263;48.680;9.004;2023-08-17T14:46:36;26.90;99.90
10433;DHT22;5263;48.680;9.004;2023-08-17T14:49:04;27.20;99.90
10433;DHT22;5263;48.680;9.004;2023-08-17T14:51:30;27.70;99.90
10433;DHT22;5263;48.680;9.004;2023-08-17T14:53:55;28.50;99.90
10433;DHT22;5263;48.680;9.004;2023-08-17T14:56:21;28.00;99.90
10433;DHT22;5263;48.680;9.004;2023-08-17T14:58:48;28.40;99.90
10433;DHT22;5263;48.680;9.004;2023-08-17T15:01:13;27.50;99.90
10433;DHT22;5263;48.680;9.004;2023-08-17T15:03:39;26.90;99.90
10433;DHT22;5263;48.680;9.004;2023-08-17T15:06:06;27.20;99.90
10433;DHT22;5263;48.680;9.004;2023-08-17T15:08:32;27.80;99.90
10433;DHT22;5263;48.680;9.004;2023-08-17T15:10:58;27.50;99.90
10433;DHT22;5263;48.680;9.004;2023-08-17T15:13:27;27.90;99.90
10433;DHT22;5263;48.680;9.004;2023-08-17T15:15:53;28.30;99.90
10433;DHT22;5263;48.680;9.004;2023-08-17T15:18:18;28.70;99.90
10433;DHT22;5263;48.680;9.004;2023-08-17T15:20:44;28.40;99.90
10433;DHT22;5263;48.680;9.004;2023-08-17T15:23:10;27.80;99.90
10433;DHT22;5263;48.680;9.004;2023-08-17T15:25:35;28.10;99.90
10433;DHT22;5263;48.680;9.004;2023-08-17T15:28:01;27.40;99.90
10433;DHT22;5263;48.680;9.004;2023-08-17T15:30:26;27.40;99.90
10433;DHT22;5263;48.680;9.004;2023-08-17T15:32:52;27.40;99.90
10433;DHT22;5263;48.680;9.004;2023-08-17T15:35:18;27.50;99.90
10433;DHT22;5263;48.680;9.004;2023-08-17T15:37:43;27.50;99.90
10433;DHT22;5263;48.680;9.004;2023-08-17T15:40:09;27.70;99.90
10433;DHT22;5263;48.680;9.004;2023-08-17T15:42:36;27.50;99.90
10433;DHT22;5263;48.680;9.004;2023-08-17T15:45:02;27.30;99.90
10433;DHT22;5263;48.680;9.004;2023-08-17T15:47:29;27.50;99.90
10433;DHT22;5263;48.680;9.004;2023-08-17T15:49:55;26.90;99.90